createdAt,value
2018-08-31T00:02:09.773Z,24.87
2018-08-31T00:04:43.714Z,24.86
2018-08-31T00:07:16.852Z,24.86
2018-08-31T00:09:50.060Z,24.85
2018-08-31T00:12:35.537Z,24.84
2018-08-31T00:15:03.272Z,24.83
2018-08-31T00:17:30.972Z,24.84
2018-08-31T00:19:58.648Z,24.83
2018-08-31T00:22:26.312Z,24.82
2018-08-31T00:25:03.450Z,24.81
2018-08-31T00:27:36.613Z,24.82
2018-08-31T00:30:09.869Z,24.82
2018-08-31T00:33:40.581Z,24.80
2018-08-31T00:36:12.997Z,24.80
2018-08-31T00:38:49.082Z,24.80
2018-08-31T00:42:24.031Z,24.78
2018-08-31T00:45:25.742Z,24.78
2018-08-31T00:47:53.554Z,24.77
2018-08-31T00:50:21.220Z,24.77
2018-08-31T00:52:48.918Z,24.77
2018-08-31T00:55:16.688Z,24.77
2018-08-31T00:57:44.315Z,24.77
2018-08-31T01:00:11.969Z,24.76
2018-08-31T01:02:39.661Z,24.76
2018-08-31T01:05:07.329Z,24.75
2018-08-31T01:07:35.070Z,24.74
2018-08-31T01:10:02.829Z,24.74
2018-08-31T01:12:30.500Z,24.73
2018-08-31T01:14:58.185Z,24.74
2018-08-31T01:17:25.838Z,24.73
2018-08-31T01:19:53.619Z,24.73
2018-08-31T01:22:21.497Z,24.72
2018-08-31T01:24:49.214Z,24.72
2018-08-31T01:27:16.881Z,24.72
2018-08-31T01:29:44.775Z,24.72
2018-08-31T01:32:12.579Z,24.71
2018-08-31T01:34:41.006Z,24.72
2018-08-31T01:37:08.669Z,24.71
2018-08-31T01:39:36.439Z,24.71
2018-08-31T01:42:04.263Z,24.71
2018-08-31T01:44:31.996Z,24.70
2018-08-31T01:46:59.720Z,24.70
2018-08-31T01:49:27.441Z,24.69
2018-08-31T01:51:55.159Z,24.69
2018-08-31T01:54:22.933Z,24.69
2018-08-31T01:56:50.701Z,24.70
2018-08-31T01:59:18.377Z,24.68
2018-08-31T02:01:46.102Z,24.68
2018-08-31T02:04:13.844Z,24.68
2018-08-31T02:06:41.660Z,24.67
2018-08-31T02:09:14.562Z,24.67
2018-08-31T02:11:42.279Z,24.67
2018-08-31T02:14:10.068Z,24.65
2018-08-31T02:16:38.321Z,24.66
2018-08-31T02:19:06.046Z,24.65
2018-08-31T02:21:34.610Z,24.64
2018-08-31T02:24:02.885Z,24.64
2018-08-31T02:26:30.662Z,24.64
2018-08-31T02:28:58.353Z,24.65
2018-08-31T02:31:26.055Z,24.64
2018-08-31T02:33:54.513Z,24.63
2018-08-31T02:36:22.331Z,24.64
2018-08-31T02:38:50.149Z,24.63
2018-08-31T02:41:18.235Z,24.63
2018-08-31T02:43:47.125Z,24.62
2018-08-31T02:46:14.958Z,24.61
2018-08-31T02:48:42.727Z,24.60
2018-08-31T02:51:10.409Z,24.61
2018-08-31T02:53:38.160Z,24.60
2018-08-31T02:56:06.204Z,24.60
2018-08-31T02:58:33.914Z,24.60
2018-08-31T03:01:01.783Z,24.58
2018-08-31T03:03:29.794Z,24.59
2018-08-31T03:05:57.550Z,24.59
2018-08-31T03:08:25.322Z,24.59
2018-08-31T03:10:53.041Z,24.57
2018-08-31T03:13:20.716Z,24.57
2018-08-31T03:15:48.433Z,24.57
2018-08-31T03:18:16.101Z,24.57
2018-08-31T03:20:43.735Z,24.57
2018-08-31T03:23:11.368Z,24.56
2018-08-31T03:25:38.988Z,24.56
2018-08-31T03:28:06.633Z,24.55
2018-08-31T03:30:34.265Z,24.55
2018-08-31T03:33:01.905Z,24.54
2018-08-31T03:35:29.525Z,24.55
2018-08-31T03:37:57.450Z,24.54
2018-08-31T03:40:25.290Z,24.54
2018-08-31T03:42:52.974Z,24.53
2018-08-31T03:45:20.800Z,24.53
2018-08-31T03:47:48.693Z,24.52
2018-08-31T03:50:16.308Z,24.53
2018-08-31T03:52:43.973Z,24.52
2018-08-31T03:55:11.648Z,24.53
2018-08-31T03:57:39.338Z,24.53
2018-08-31T04:00:07.615Z,24.52
2018-08-31T04:02:35.231Z,24.51
2018-08-31T04:05:02.848Z,24.51
2018-08-31T04:07:30.468Z,24.51
2018-08-31T04:09:58.097Z,24.51
2018-08-31T04:12:25.721Z,24.50
2018-08-31T04:14:53.367Z,24.50
2018-08-31T04:17:21.010Z,24.50
2018-08-31T04:19:48.657Z,24.51
2018-08-31T04:22:16.276Z,24.49
2018-08-31T04:24:44.008Z,24.50
2018-08-31T04:27:11.625Z,24.50
2018-08-31T04:29:39.245Z,24.50
2018-08-31T04:32:06.875Z,24.50
2018-08-31T04:34:34.544Z,24.49
2018-08-31T04:37:02.228Z,24.48
2018-08-31T04:39:29.840Z,24.47
2018-08-31T04:41:57.458Z,24.48
2018-08-31T04:44:25.326Z,24.48
2018-08-31T04:46:53.008Z,24.48
2018-08-31T04:49:20.649Z,24.48
2018-08-31T04:51:48.274Z,24.47
2018-08-31T04:54:15.894Z,24.47
2018-08-31T04:56:43.529Z,24.47
2018-08-31T04:59:11.165Z,24.47
2018-08-31T05:01:38.805Z,24.46
2018-08-31T05:04:06.453Z,24.46
2018-08-31T05:06:34.093Z,24.46
2018-08-31T05:09:01.712Z,24.45
2018-08-31T05:11:29.338Z,24.45
2018-08-31T05:13:56.964Z,24.42
2018-08-31T05:16:24.585Z,24.44
2018-08-31T05:18:52.205Z,24.43
2018-08-31T05:21:19.860Z,24.42
2018-08-31T05:23:47.541Z,24.43
2018-08-31T05:26:15.156Z,24.40
2018-08-31T05:28:42.777Z,24.42
2018-08-31T05:31:10.406Z,24.41
2018-08-31T05:33:38.106Z,24.42
2018-08-31T05:36:05.726Z,24.42
2018-08-31T05:38:33.373Z,24.42
2018-08-31T05:41:00.993Z,24.43
2018-08-31T05:43:28.642Z,24.41
2018-08-31T05:45:56.292Z,24.42
2018-08-31T05:48:23.921Z,24.41
2018-08-31T05:50:51.563Z,24.41
2018-08-31T05:53:19.184Z,24.40
2018-08-31T05:55:46.815Z,24.40
2018-08-31T05:58:14.445Z,24.40
2018-08-31T06:00:42.086Z,24.39
2018-08-31T06:03:09.715Z,24.38
2018-08-31T06:05:37.329Z,24.38
2018-08-31T06:08:04.975Z,24.37
2018-08-31T06:10:32.864Z,24.38
2018-08-31T06:13:00.534Z,24.36
2018-08-31T06:15:28.178Z,24.36
2018-08-31T06:17:55.806Z,24.39
2018-08-31T06:20:23.437Z,24.42
2018-08-31T06:22:51.215Z,24.41
2018-08-31T06:25:18.846Z,24.40
2018-08-31T06:27:46.508Z,24.40
2018-08-31T06:30:14.121Z,24.43
2018-08-31T06:32:41.854Z,24.42
2018-08-31T06:35:09.422Z,24.43
2018-08-31T06:37:37.043Z,24.42
2018-08-31T06:40:04.851Z,24.39
2018-08-31T06:42:32.478Z,24.40
2018-08-31T06:45:00.110Z,24.41
2018-08-31T06:47:27.732Z,24.41
2018-08-31T06:49:55.384Z,24.41
2018-08-31T06:52:23.001Z,24.42
2018-08-31T06:54:50.634Z,24.41
2018-08-31T06:57:18.244Z,24.43
2018-08-31T06:59:45.884Z,24.44
2018-08-31T07:02:13.541Z,24.46
2018-08-31T07:04:41.233Z,24.48
2018-08-31T07:07:08.885Z,24.50
2018-08-31T07:09:36.526Z,24.50
2018-08-31T07:12:04.152Z,24.52
2018-08-31T07:14:31.786Z,24.51
2018-08-31T07:16:59.409Z,24.49
2018-08-31T07:19:27.702Z,24.48
2018-08-31T07:21:55.290Z,24.48
2018-08-31T07:24:22.970Z,24.47
2018-08-31T07:26:50.631Z,24.48
2018-08-31T07:29:18.266Z,24.48
2018-08-31T07:31:45.952Z,24.50
2018-08-31T07:34:13.597Z,24.50
2018-08-31T07:36:41.241Z,24.49
2018-08-31T07:39:09.312Z,24.49
2018-08-31T07:41:37.014Z,24.50
2018-08-31T07:44:04.651Z,24.50
2018-08-31T07:46:32.280Z,24.52
2018-08-31T07:48:59.915Z,24.53
2018-08-31T07:51:27.542Z,24.54
2018-08-31T07:53:55.181Z,24.54
2018-08-31T07:56:22.826Z,24.61
2018-08-31T07:58:50.666Z,24.62
2018-08-31T08:01:18.297Z,24.63
2018-08-31T08:03:45.938Z,24.64
2018-08-31T08:06:13.709Z,24.62
2018-08-31T08:08:41.338Z,24.64
2018-08-31T08:11:09.228Z,24.62
2018-08-31T08:13:37.233Z,24.61
2018-08-31T08:16:05.093Z,24.62
2018-08-31T08:18:32.953Z,24.64
2018-08-31T08:21:00.626Z,24.65
2018-08-31T08:23:28.298Z,24.66
2018-08-31T08:25:56.106Z,24.68
2018-08-31T08:28:24.002Z,24.69
2018-08-31T08:30:51.835Z,24.68
2018-08-31T08:33:19.639Z,24.68
2018-08-31T08:35:47.372Z,24.68
2018-08-31T08:38:15.119Z,24.70
2018-08-31T08:40:42.922Z,24.68
2018-08-31T08:43:10.734Z,24.68
2018-08-31T08:45:38.427Z,24.69
2018-08-31T08:48:06.326Z,24.69
2018-08-31T08:50:34.001Z,24.69
2018-08-31T08:53:02.085Z,24.71
2018-08-31T08:55:29.864Z,24.72
2018-08-31T08:57:57.683Z,24.71
2018-08-31T09:00:25.394Z,24.71
2018-08-31T09:02:53.126Z,24.72
2018-08-31T09:05:20.960Z,24.70
2018-08-31T09:07:48.841Z,24.72
2018-08-31T09:10:16.617Z,24.72
2018-08-31T09:12:44.596Z,24.72
2018-08-31T09:15:12.290Z,24.72
2018-08-31T09:17:40.156Z,24.73
2018-08-31T09:20:07.940Z,24.73
2018-08-31T09:22:35.662Z,24.74
2018-08-31T09:25:03.748Z,24.73
2018-08-31T09:27:32.738Z,24.72
2018-08-31T09:30:00.526Z,24.73
2018-08-31T09:32:28.885Z,24.73
2018-08-31T09:34:57.353Z,24.73
2018-08-31T09:37:25.092Z,24.74
2018-08-31T09:39:52.826Z,24.73
2018-08-31T09:42:20.576Z,24.64
2018-08-31T09:44:48.316Z,24.62
2018-08-31T09:47:16.132Z,24.62
2018-08-31T09:49:44.893Z,24.64
2018-08-31T09:52:13.167Z,24.63
2018-08-31T09:54:40.826Z,24.66
2018-08-31T09:57:08.593Z,24.66
2018-08-31T09:59:36.293Z,24.66
2018-08-31T10:02:05.900Z,24.65
2018-08-31T10:04:33.684Z,24.66
2018-08-31T10:07:01.394Z,24.67
2018-08-31T10:09:29.870Z,24.65
2018-08-31T10:11:57.719Z,24.66
2018-08-31T10:14:25.526Z,24.65
2018-08-31T10:16:53.257Z,24.67
2018-08-31T10:19:20.950Z,24.66
2018-08-31T10:21:48.612Z,24.66
2018-08-31T10:24:16.288Z,24.67
2018-08-31T10:26:44.066Z,24.68
2018-08-31T10:29:11.956Z,24.67
2018-08-31T10:31:39.761Z,24.64
2018-08-31T10:34:07.470Z,24.65
2018-08-31T10:36:35.205Z,24.64
2018-08-31T10:39:03.140Z,24.63
2018-08-31T10:41:30.964Z,24.63
2018-08-31T10:43:58.642Z,24.62
2018-08-31T10:46:26.383Z,24.61
2018-08-31T10:48:54.110Z,24.61
2018-08-31T10:51:21.857Z,24.62
2018-08-31T10:53:49.637Z,24.59
2018-08-31T10:56:17.357Z,24.59
2018-08-31T10:58:45.086Z,24.61
2018-08-31T11:01:12.886Z,24.59
2018-08-31T11:03:40.663Z,24.59
2018-08-31T11:06:08.481Z,24.60
2018-08-31T11:08:36.213Z,24.60
2018-08-31T11:11:04.014Z,24.57
2018-08-31T11:13:31.741Z,24.58
2018-08-31T11:15:59.509Z,24.57
2018-08-31T11:18:27.290Z,24.57
2018-08-31T11:20:55.042Z,24.57
2018-08-31T11:23:22.778Z,24.56
2018-08-31T11:25:50.562Z,24.59
2018-08-31T11:28:18.257Z,24.58
2018-08-31T11:30:45.997Z,24.58
2018-08-31T11:33:13.673Z,24.58
2018-08-31T11:35:41.493Z,24.60
2018-08-31T11:38:09.193Z,24.60
2018-08-31T11:40:37.243Z,24.61
2018-08-31T11:43:05.212Z,24.63
2018-08-31T11:45:33.002Z,24.63
2018-08-31T11:48:00.734Z,24.63
2018-08-31T11:50:28.501Z,24.65
2018-08-31T11:52:56.180Z,24.65
2018-08-31T11:55:24.078Z,24.66
2018-08-31T11:57:51.893Z,24.66
2018-08-31T12:00:19.628Z,24.68
2018-08-31T12:02:47.381Z,24.67
2018-08-31T12:05:15.131Z,24.67
2018-08-31T12:07:42.939Z,24.65
2018-08-31T12:10:10.708Z,24.69
2018-08-31T12:12:38.428Z,24.70
2018-08-31T12:15:06.181Z,24.70
2018-08-31T12:17:34.350Z,24.76
2018-08-31T12:20:02.045Z,24.81
2018-08-31T12:22:29.800Z,24.81
2018-08-31T12:24:58.617Z,24.89
2018-08-31T12:27:26.717Z,24.86
2018-08-31T12:29:54.483Z,24.83
2018-08-31T12:32:22.173Z,24.82
2018-08-31T12:34:49.954Z,24.90
2018-08-31T12:37:17.971Z,24.91
2018-08-31T12:39:45.806Z,24.96
2018-08-31T12:42:13.591Z,24.94
2018-08-31T12:44:41.414Z,24.93
2018-08-31T12:47:09.097Z,24.96
2018-08-31T12:49:36.840Z,24.95
2018-08-31T12:52:04.575Z,24.91
2018-08-31T12:54:32.265Z,24.90
2018-08-31T12:56:59.958Z,24.91
2018-08-31T12:59:27.649Z,24.91
2018-08-31T13:01:55.512Z,24.93
2018-08-31T13:04:23.259Z,24.93
2018-08-31T13:06:51.009Z,24.89
2018-08-31T13:09:18.727Z,24.84
2018-08-31T13:11:46.462Z,24.83
2018-08-31T13:14:14.181Z,24.82
2018-08-31T13:16:41.898Z,24.81
2018-08-31T13:19:09.640Z,24.83
2018-08-31T13:21:37.382Z,24.84
2018-08-31T13:24:05.151Z,24.82
2018-08-31T13:26:32.838Z,24.83
2018-08-31T13:29:00.552Z,24.83
2018-08-31T13:31:28.246Z,24.79
2018-08-31T13:33:56.038Z,24.81
2018-08-31T13:36:23.773Z,24.80
2018-08-31T13:38:51.520Z,24.81
2018-08-31T13:41:19.274Z,24.80
2018-08-31T13:43:46.944Z,24.80
2018-08-31T13:46:14.705Z,24.79
2018-08-31T13:48:42.449Z,24.77
2018-08-31T13:51:10.249Z,24.76
2018-08-31T13:53:38.001Z,24.76
2018-08-31T13:56:05.712Z,24.77
2018-08-31T13:58:33.521Z,24.77
2018-08-31T14:01:01.236Z,24.74
2018-08-31T14:03:29.041Z,24.74
2018-08-31T14:05:56.768Z,24.75
2018-08-31T14:08:24.480Z,24.75
2018-08-31T14:10:52.237Z,24.77
2018-08-31T14:13:20.022Z,24.74
2018-08-31T14:15:47.804Z,24.75
2018-08-31T14:18:15.486Z,24.76
2018-08-31T14:20:43.153Z,24.75
2018-08-31T14:23:10.962Z,24.75
2018-08-31T14:25:38.667Z,24.74
2018-08-31T14:28:06.496Z,24.73
2018-08-31T14:30:34.257Z,24.71
2018-08-31T14:33:02.036Z,24.72
2018-08-31T14:35:30.034Z,24.71
2018-08-31T14:37:57.807Z,24.70
2018-08-31T14:40:25.575Z,24.73
2018-08-31T14:42:53.384Z,24.71
2018-08-31T14:45:21.184Z,24.70
2018-08-31T14:47:49.011Z,24.70
2018-08-31T14:50:16.742Z,24.71
2018-08-31T14:52:44.561Z,24.70
2018-08-31T14:55:12.314Z,24.70
2018-08-31T14:57:40.052Z,24.69
2018-08-31T15:00:07.805Z,24.69
2018-08-31T15:02:35.661Z,24.69
2018-08-31T15:05:03.465Z,24.68
2018-08-31T15:07:31.240Z,24.69
2018-08-31T15:09:59.058Z,24.67
2018-08-31T15:12:26.869Z,24.65
2018-08-31T15:14:54.566Z,24.64
2018-08-31T15:17:22.325Z,24.65
2018-08-31T15:19:50.065Z,24.66
2018-08-31T15:22:17.741Z,24.63
2018-08-31T15:24:45.432Z,24.65
2018-08-31T15:27:13.179Z,24.63
2018-08-31T15:29:40.853Z,24.64
2018-08-31T15:32:08.511Z,24.62
2018-08-31T15:34:36.209Z,24.61
2018-08-31T15:37:03.864Z,24.61
2018-08-31T15:39:31.494Z,24.59
2018-08-31T15:41:59.213Z,24.59
2018-08-31T15:44:26.908Z,24.61
2018-08-31T15:46:54.553Z,24.59
2018-08-31T15:49:22.218Z,24.59
2018-08-31T15:51:49.862Z,24.57
2018-08-31T15:54:17.510Z,24.57
2018-08-31T15:56:45.181Z,24.56
2018-08-31T15:59:12.830Z,24.55
2018-08-31T16:01:40.560Z,24.56
2018-08-31T16:04:08.281Z,24.55
2018-08-31T16:06:35.912Z,24.55
2018-08-31T16:09:04.587Z,24.59
2018-08-31T16:11:32.339Z,24.55
2018-08-31T16:13:59.965Z,24.58
2018-08-31T16:16:27.576Z,24.55
2018-08-31T16:18:55.253Z,24.55
2018-08-31T16:21:22.848Z,24.54
2018-08-31T16:23:50.476Z,24.54
2018-08-31T16:26:18.108Z,24.54
2018-08-31T16:28:45.759Z,24.58
2018-08-31T16:31:13.422Z,24.60
2018-08-31T16:33:41.049Z,24.61
2018-08-31T16:36:08.674Z,24.67
2018-08-31T16:38:36.307Z,24.73
2018-08-31T16:41:03.950Z,24.69
2018-08-31T16:43:31.592Z,24.75
2018-08-31T16:45:59.280Z,24.87
2018-08-31T16:48:26.904Z,24.75
2018-08-31T16:50:54.577Z,24.70
2018-08-31T16:53:22.378Z,24.67
2018-08-31T16:55:50.176Z,24.68
2018-08-31T16:58:17.923Z,24.70
2018-08-31T17:00:45.729Z,24.70
2018-08-31T17:03:13.452Z,24.67
2018-08-31T17:05:41.252Z,24.82
2018-08-31T17:08:09.022Z,24.77
2018-08-31T17:10:36.752Z,24.89
2018-08-31T17:13:04.482Z,24.87
2018-08-31T17:15:32.216Z,24.92
2018-08-31T17:17:59.939Z,24.66
2018-08-31T17:20:27.617Z,24.69
2018-08-31T17:22:55.621Z,24.70
2018-08-31T17:25:23.303Z,24.93
2018-08-31T17:27:56.269Z,24.86
2018-08-31T17:30:24.074Z,24.82
2018-08-31T17:32:57.197Z,25.04
2018-08-31T17:35:30.240Z,25.03
2018-08-31T17:37:59.351Z,25.12
2018-08-31T17:40:27.167Z,24.91
2018-08-31T17:42:54.919Z,24.84
2018-08-31T17:45:22.670Z,24.94
2018-08-31T17:47:51.093Z,24.70
2018-08-31T17:50:18.878Z,24.60
2018-08-31T17:52:46.932Z,24.57
2018-08-31T17:55:15.075Z,24.52
2018-08-31T17:57:43.149Z,24.48
2018-08-31T18:00:11.301Z,24.47
2018-08-31T18:02:38.989Z,24.45
2018-08-31T18:05:06.917Z,24.46
2018-08-31T18:07:34.673Z,24.45
2018-08-31T18:10:02.525Z,24.43
2018-08-31T18:12:30.263Z,24.42
2018-08-31T18:14:58.267Z,24.40
2018-08-31T18:17:25.991Z,24.40
2018-08-31T18:19:53.729Z,24.39
2018-08-31T18:22:21.500Z,24.39
2018-08-31T18:24:49.366Z,24.38
2018-08-31T18:27:16.996Z,24.38
2018-08-31T18:29:44.616Z,24.37
2018-08-31T18:32:12.241Z,24.36
2018-08-31T18:34:39.902Z,24.36
2018-08-31T18:37:07.517Z,24.35
2018-08-31T18:39:35.171Z,24.33
2018-08-31T18:42:02.818Z,24.32
2018-08-31T18:44:30.472Z,24.33
2018-08-31T18:46:58.107Z,24.32
2018-08-31T18:49:25.752Z,24.31
2018-08-31T18:51:53.368Z,24.31
2018-08-31T18:54:20.983Z,24.31
2018-08-31T18:56:48.609Z,24.31
2018-08-31T18:59:16.367Z,24.29
2018-08-31T19:01:43.985Z,24.30
2018-08-31T19:04:11.613Z,24.29
2018-08-31T19:06:39.257Z,24.28
2018-08-31T19:09:07.398Z,24.27
2018-08-31T19:11:35.081Z,24.26
2018-08-31T19:14:02.720Z,24.26
2018-08-31T19:16:30.422Z,24.25
2018-08-31T19:18:58.093Z,24.24
2018-08-31T19:21:25.808Z,24.25
2018-08-31T19:23:53.507Z,24.24
2018-08-31T19:26:21.280Z,24.25
2018-08-31T19:28:49.072Z,24.25
2018-08-31T19:31:17.028Z,24.24
2018-08-31T19:33:44.853Z,24.23
2018-08-31T19:36:12.604Z,24.24
2018-08-31T19:38:40.450Z,24.21
2018-08-31T19:41:08.245Z,24.21
2018-08-31T19:43:36.153Z,24.21
2018-08-31T19:46:03.917Z,24.21
2018-08-31T19:48:31.609Z,24.20
2018-08-31T19:50:59.464Z,24.19
2018-08-31T19:53:27.161Z,24.19
2018-08-31T19:55:54.989Z,24.19
2018-08-31T19:58:22.730Z,24.18
2018-08-31T20:00:50.437Z,24.17
2018-08-31T20:03:18.267Z,24.17
2018-08-31T20:05:45.992Z,24.17
2018-08-31T20:08:13.665Z,24.18
2018-08-31T20:10:41.400Z,24.18
2018-08-31T20:13:09.150Z,24.18
2018-08-31T20:15:36.801Z,24.16
2018-08-31T20:18:04.694Z,24.15
2018-08-31T20:20:32.406Z,24.16
2018-08-31T20:23:00.071Z,24.15
2018-08-31T20:25:27.758Z,24.15
2018-08-31T20:27:55.392Z,24.14
2018-08-31T20:30:23.072Z,24.15
2018-08-31T20:32:50.768Z,24.13
2018-08-31T20:35:18.432Z,24.15
2018-08-31T20:37:46.068Z,24.15
2018-08-31T20:40:13.856Z,24.13
2018-08-31T20:42:41.645Z,24.12
2018-08-31T20:45:09.848Z,24.12
2018-08-31T20:47:37.546Z,24.13
2018-08-31T20:50:05.347Z,24.12
2018-08-31T20:52:33.056Z,24.12
2018-08-31T20:55:01.029Z,24.11
2018-08-31T20:57:28.776Z,24.11
2018-08-31T20:59:57.099Z,24.10
2018-08-31T21:02:25.021Z,24.10
2018-08-31T21:04:52.706Z,24.11
2018-08-31T21:07:20.461Z,24.16
2018-08-31T21:09:48.180Z,24.16
2018-08-31T21:12:15.849Z,24.14
2018-08-31T21:14:43.598Z,24.13
2018-08-31T21:17:11.282Z,24.14
2018-08-31T21:19:38.960Z,24.14
2018-08-31T21:22:06.705Z,24.12
2018-08-31T21:24:34.392Z,24.13
2018-08-31T21:27:02.099Z,24.15
2018-08-31T21:29:29.820Z,24.15
2018-08-31T21:31:57.674Z,24.16
2018-08-31T21:34:25.361Z,24.17
2018-08-31T21:36:53.061Z,24.16
2018-08-31T21:39:20.774Z,24.16
2018-08-31T21:41:48.529Z,24.16
2018-08-31T21:44:16.281Z,24.15
2018-08-31T21:46:44.012Z,24.17
2018-08-31T21:49:11.694Z,24.15
2018-08-31T21:51:39.393Z,24.14
2018-08-31T21:54:07.119Z,24.15
2018-08-31T21:56:34.821Z,24.15
2018-08-31T21:59:02.573Z,24.14
2018-08-31T22:01:35.613Z,24.14
2018-08-31T22:04:03.561Z,24.15
2018-08-31T22:06:31.681Z,24.15
2018-08-31T22:08:59.328Z,24.16
2018-08-31T22:11:26.957Z,24.15
2018-08-31T22:13:54.634Z,24.15
2018-08-31T22:16:22.247Z,24.16
2018-08-31T22:18:49.893Z,24.14
2018-08-31T22:21:17.602Z,24.14
2018-08-31T22:23:45.238Z,24.12
2018-08-31T22:26:12.925Z,24.11
2018-08-31T22:28:40.579Z,24.12
2018-08-31T22:31:08.214Z,24.11
2018-08-31T22:33:35.950Z,24.12
2018-08-31T22:36:03.692Z,24.10
2018-08-31T22:38:31.323Z,24.09
2018-08-31T22:40:58.949Z,24.08
2018-08-31T22:43:32.125Z,24.07
2018-08-31T22:45:59.734Z,24.08
2018-08-31T22:48:27.456Z,24.08
2018-08-31T22:50:55.264Z,24.08
2018-08-31T22:53:23.061Z,24.08
2018-08-31T22:55:50.873Z,24.07
2018-08-31T22:58:18.614Z,24.08
2018-08-31T23:00:46.382Z,24.06
2018-08-31T23:03:14.101Z,24.06
2018-08-31T23:05:41.842Z,24.07
2018-08-31T23:08:09.602Z,24.05
2018-08-31T23:10:37.374Z,24.05
2018-08-31T23:13:05.180Z,24.05
2018-08-31T23:15:33.001Z,24.04
2018-08-31T23:18:00.842Z,24.04
2018-08-31T23:20:28.673Z,24.04
2018-08-31T23:23:01.821Z,24.03
2018-08-31T23:25:34.861Z,24.01
2018-08-31T23:28:02.654Z,24.02
2018-08-31T23:30:30.424Z,24.02
2018-08-31T23:32:58.204Z,24.02
2018-08-31T23:35:26.000Z,24.01
2018-08-31T23:37:53.904Z,24.02
2018-08-31T23:40:21.637Z,24.00
2018-08-31T23:42:49.423Z,24.02
2018-08-31T23:45:17.176Z,24.02
2018-08-31T23:47:44.992Z,24.00
2018-08-31T23:50:12.733Z,23.99
2018-08-31T23:52:40.558Z,24.00
2018-08-31T23:55:08.275Z,24.00
2018-08-31T23:57:36.042Z,23.99
